Time;durP1;ratioP1;P1;durP2;ratioP2;P2;SDS_P1;SDS_P2;PMS_P1;PMS_P2;Temp;Humidity;BMP_temperature;BMP_pressure;BME280_temperature;BME280_humidity;BME280_pressure;Samples;Min_cycle;Max_cycle;Signal;HPM_P1;HPM_P2
2022/11/24 00:02:42;;;;;;;44.50;23.58;;;;;;;-1.44;79.48;99402.16;30497970;28;97038;-63
2022/11/24 00:17:42;;;;;;;50.38;24.63;;;;;;;-1.37;79.27;99421.69;30497090;28;96841;-69
2022/11/24 00:32:43;;;;;;;45.67;22.98;;;;;;;-1.26;79.82;99425.28;30496152;28;96757;-64
2022/11/24 00:47:43;;;;;;;54.13;24.83;;;;;;;-1.22;79.28;99430.19;30494964;28;96825;-65
2022/11/24 01:02:43;;;;;;;65.47;24.92;;;;;;;-1.15;79.98;99427.91;30493683;28;97580;-68
2022/11/24 01:17:44;;;;;;;50.15;24.20;;;;;;;-0.99;79.92;99422.38;30491871;28;97600;-67
2022/11/24 01:32:45;;;;;;;59.13;24.80;;;;;;;-0.92;79.84;99426.19;30491028;28;97081;-69
2022/11/24 01:47:45;;;;;;;54.20;27.25;;;;;;;-0.89;79.74;99430.38;30490133;28;96649;-63
2022/11/24 02:02:45;;;;;;;52.50;24.38;;;;;;;-0.91;79.40;99429.66;30488747;28;96601;-67
2022/11/24 02:17:46;;;;;;;50.88;22.95;;;;;;;-0.79;79.88;99435.72;30488270;28;96786;-68
2022/11/24 02:32:46;;;;;;;49.67;24.40;;;;;;;-0.78;79.52;99426.94;30507614;28;96844;-71
2022/11/24 02:47:47;;;;;;;55.53;24.65;;;;;;;-0.71;80.26;99421.13;30505740;28;97452;-63
2022/11/24 03:02:47;;;;;;;55.55;24.77;;;;;;;-0.65;79.92;99438.13;30504520;28;96840;-67
2022/11/24 03:17:48;;;;;;;43.72;22.70;;;;;;;-0.70;79.30;99455.97;30502235;28;96836;-69
2022/11/24 03:32:51;;;;;;;47.10;23.77;;;;;;;-0.78;80.01;99464.41;30500585;28;96747;-63
2022/11/24 03:47:51;;;;;;;45.80;23.88;;;;;;;-0.69;80.03;99465.47;30498938;28;97250;-65
2022/11/24 04:02:52;;;;;;;47.90;24.77;;;;;;;-0.57;80.21;99472.41;30497364;28;96850;-63
2022/11/24 04:17:54;;;;;;;42.03;22.77;;;;;;;-0.44;80.15;99469.66;30494636;28;97393;-63
2022/11/24 04:32:56;;;;;;;46.78;23.40;;;;;;;-0.31;80.11;99477.44;30494249;28;96677;-65
2022/11/24 04:47:56;;;;;;;50.83;23.92;;;;;;;-0.17;80.11;99499.94;30491613;28;97274;-63
2022/11/24 05:02:56;;;;;;;43.13;23.67;;;;;;;-0.10;79.75;99522.06;30489406;28;97084;-64
2022/11/24 05:17:57;;;;;;;57.45;25.95;;;;;;;-0.20;79.75;99536.81;30486775;28;96951;-67
2022/11/24 05:32:57;;;;;;;50.22;24.50;;;;;;;-0.37;79.61;99545.94;30484088;28;97351;-65
2022/11/24 05:48:03;;;;;;;52.30;27.33;;;;;;;-0.32;80.14;99548.22;30481752;28;97779;-62
2022/11/24 06:03:04;;;;;;;43.20;23.65;;;;;;;-0.18;80.20;99558.47;30498420;28;97035;-71
2022/11/24 06:18:04;;;;;;;48.25;24.23;;;;;;;-0.14;80.12;99586.06;30501553;28;96768;-66
2022/11/24 06:33:05;;;;;;;49.45;24.50;;;;;;;-0.10;80.13;99597.97;30500797;28;96935;-69
2022/11/24 06:48:05;;;;;;;51.47;28.50;;;;;;;0.05;80.27;99629.22;30501314;28;97249;-63
2022/11/24 07:03:05;;;;;;;58.22;31.38;;;;;;;0.04;80.28;99658.97;30498158;28;97655;-65
2022/11/24 07:18:06;;;;;;;59.75;29.67;;;;;;;0.19;80.45;99670.06;30496895;28;97143;-66
2022/11/24 07:33:06;;;;;;;52.08;27.23;;;;;;;0.56;80.03;99682.97;30499437;28;97488;-63
2022/11/24 07:48:06;;;;;;;52.58;26.98;;;;;;;0.56;79.78;99690.84;30494427;28;96604;-63
2022/11/24 08:03:07;;;;;;;60.88;28.58;;;;;;;1.09;80.14;99693.66;30493173;28;98515;-64
2022/11/24 08:18:08;;;;;;;63.22;30.48;;;;;;;1.42;79.41;99676.22;30487892;28;97330;-66
2022/11/24 08:33:08;;;;;;;60.75;26.60;;;;;;;1.72;79.32;99698.28;30484682;28;97424;-63
2022/11/24 08:48:08;;;;;;;61.45;29.85;;;;;;;1.56;79.33;99721.50;30442645;28;96782;-65
2022/11/24 09:03:10;;;;;;;65.18;32.78;;;;;;;1.75;78.53;99736.59;30489652;28;96757;-61
2022/11/24 09:18:11;;;;;;;66.68;32.10;;;;;;;1.84;78.38;99736.69;30484963;28;96675;-62
2022/11/24 09:33:11;;;;;;;56.60;27.35;;;;;;;2.26;78.44;99741.16;30495148;28;97176;-64
2022/11/24 09:48:27;;;;;;;44.30;23.10;;;;;;;3.15;78.35;99745.91;30505765;28;96768;-65
2022/11/24 10:03:36;;;;;;;46.45;24.77;;;;;;;5.67;77.14;99736.06;30504815;28;97246;-66
2022/11/24 10:19:03;;;;;;;46.40;21.85;;;;;;;6.71;73.17;99742.56;30492722;28;97467;-73
2022/11/24 10:34:16;;;;;;;46.83;22.88;;;;;;;5.83;71.87;99737.22;30507072;28;97376;-72
2022/11/24 10:49:26;;;;;;;42.60;23.60;;;;;;;6.99;71.06;99745.03;30498109;28;96779;-66
2022/11/24 11:04:33;;;;;;;46.30;23.17;;;;;;;6.09;70.46;99743.41;30498522;28;97298;-73
2022/11/24 11:19:42;;;;;;;51.28;25.63;;;;;;;5.14;69.84;99747.34;30497154;28;97553;-69
2022/11/24 11:34:43;;;;;;;56.05;26.23;;;;;;;4.60;72.24;99742.66;30488062;28;97335;-66
2022/11/24 11:49:48;;;;;;;54.55;30.38;;;;;;;4.41;72.16;99743.53;30488762;28;96888;-66
2022/11/24 12:05:26;;;;;;;63.83;28.33;;;;;;;3.84;72.09;99753.94;30487397;28;97443;-68
2022/11/24 12:20:47;;;;;;;49.50;25.77;;;;;;;4.09;72.60;99749.94;30491238;28;96587;-68
2022/11/24 12:36:22;;;;;;;58.97;30.13;;;;;;;4.40;71.89;99757.69;30492684;28;96732;-70
2022/11/24 12:51:30;;;;;;;61.03;27.02;;;;;;;4.39;72.30;99759.50;30468001;28;96825;-70
2022/11/24 13:06:52;;;;;;;43.65;26.95;;;;;;;4.26;72.46;99766.84;30490524;28;97354;-68
2022/11/24 13:21:59;;;;;;;55.83;26.77;;;;;;;4.02;72.09;99786.56;30367662;28;96788;-69
2022/11/24 13:37:00;;;;;;;58.35;27.65;;;;;;;3.94;72.98;99790.84;30361010;28;97027;-70
2022/11/24 13:52:38;;;;;;;50.17;25.60;;;;;;;3.80;72.78;99792.09;30350757;28;97419;-68
2022/11/24 14:07:41;;;;;;;55.92;27.10;;;;;;;3.69;73.19;99807.06;30364160;28;96690;-72
2022/11/24 14:22:42;;;;;;;50.40;26.83;;;;;;;3.54;73.29;99811.00;30413541;28;97822;-73
2022/11/24 14:37:42;;;;;;;52.90;27.25;;;;;;;3.38;73.75;99828.16;30491488;28;96930;-72
2022/11/24 14:52:53;;;;;;;53.72;27.98;;;;;;;3.28;73.16;99845.72;30486839;28;96813;-66
2022/11/24 15:08:01;;;;;;;55.22;28.40;;;;;;;3.03;74.46;99845.19;30488917;28;96952;-65
2022/11/24 15:23:11;;;;;;;58.03;29.20;;;;;;;3.04;74.56;99870.53;30488675;28;97352;-66
2022/11/24 15:38:12;;;;;;;55.78;29.45;;;;;;;2.96;75.01;99877.41;30487293;28;97024;-64
2022/11/24 15:53:28;;;;;;;59.03;29.90;;;;;;;2.81;75.03;99892.69;30486487;28;97105;-67
2022/11/24 16:08:29;;;;;;;53.40;29.83;;;;;;;2.76;75.20;99900.09;30485087;28;96673;-68
2022/11/24 16:23:29;;;;;;;59.22;30.50;;;;;;;2.60;75.33;99908.41;30483536;28;96988;-65
2022/11/24 16:38:30;;;;;;;64.93;32.05;;;;;;;2.51;75.68;99924.00;30481607;28;96823;-70
2022/11/24 16:53:30;;;;;;;69.32;34.90;;;;;;;2.49;75.36;99931.19;30449613;28;98015;-63
2022/11/24 17:08:34;;;;;;;76.95;41.00;;;;;;;2.16;75.65;99947.84;30461028;28;97528;-63
2022/11/24 17:23:34;;;;;;;84.65;40.95;;;;;;;2.03;76.51;99966.41;30472188;28;98014;-65
2022/11/24 17:38:35;;;;;;;89.40;42.25;;;;;;;2.14;76.66;99968.19;30473698;28;97271;-64
2022/11/24 17:53:36;;;;;;;87.70;43.80;;;;;;;2.14;76.78;99981.31;30482220;28;97687;-63
2022/11/24 18:08:38;;;;;;;93.18;44.65;;;;;;;1.96;77.11;99989.69;30474519;28;97443;-66
2022/11/24 18:23:39;;;;;;;90.35;45.70;;;;;;;1.78;77.37;100012.97;30387032;28;97349;-67
2022/11/24 18:38:40;;;;;;;89.05;47.45;;;;;;;1.73;77.84;100006.41;30461387;28;97793;-63
2022/11/24 18:53:43;;;;;;;89.40;44.10;;;;;;;1.94;77.95;100010.00;30497727;28;96635;-69
2022/11/24 19:08:44;;;;;;;85.13;43.35;;;;;;;2.10;77.99;100014.06;30497649;28;97893;-67
2022/11/24 19:23:44;;;;;;;92.75;45.20;;;;;;;2.00;77.58;100017.38;30494923;28;97103;-65
2022/11/24 19:38:53;;;;;;;87.43;45.28;;;;;;;2.09;77.73;100022.88;30498506;28;96831;-63
2022/11/24 19:53:54;;;;;;;98.00;44.72;;;;;;;2.03;78.13;100056.56;30495956;28;96695;-76
2022/11/24 22:21:41;;;;;;;154.70;69.20;;;;;;;2.20;79.62;100141.16;30961884;28;96782;-64
2022/11/24 22:36:41;;;;;;;73.57;40.50;;;;;;;2.51;79.60;100144.06;30922301;28;96750;-64
2022/11/24 22:51:41;;;;;;;88.13;44.28;;;;;;;2.76;79.27;100147.38;30833097;28;97365;-64
2022/11/24 23:06:42;;;;;;;87.80;43.45;;;;;;;2.84;79.26;100172.16;30831255;28;96683;-64
2022/11/24 23:21:42;;;;;;;88.38;40.67;;;;;;;2.99;79.39;100170.09;30808260;28;98308;-64
2022/11/24 23:36:43;;;;;;;84.03;42.22;;;;;;;3.13;79.66;100168.16;30747304;28;96537;-66
2022/11/24 23:51:43;;;;;;;62.80;29.88;;;;;;;3.31;80.09;100179.84;30745384;28;97625;-63
